Time;durP1;ratioP1;P1;durP2;ratioP2;P2;SDS_P1;SDS_P2;PMS_P1;PMS_P2;Temp;Humidity;BMP_temperature;BMP_pressure;BME280_temperature;BME280_humidity;BME280_pressure;Samples;Min_cycle;Max_cycle;Signal;HPM_P1;HPM_P2
2022/04/14 00:00:53;;;;;;;;;;;14.20;84.20;;;;;;5064980;28;20106;-68
2022/04/14 00:03:19;;;;;;;;;;;14.20;84.50;;;;;;5065971;28;19912;-68
2022/04/14 00:05:45;;;;;;;;;;;14.20;84.40;;;;;;5065086;28;20440;-68
2022/04/14 00:08:10;;;;;;;;;;;14.20;84.60;;;;;;5065470;28;20380;-68
2022/04/14 00:10:36;;;;;;;;;;;14.10;84.40;;;;;;5065122;28;20326;-68
2022/04/14 00:13:02;;;;;;;;;;;14.10;84.60;;;;;;5064898;28;19923;-68
2022/04/14 00:15:28;;;;;;;;;;;14.10;84.60;;;;;;5065190;28;19912;-68
2022/04/14 00:17:54;;;;;;;;;;;14.10;84.60;;;;;;5065221;28;20026;-68
2022/04/14 00:20:19;;;;;;;;;;;14.10;84.70;;;;;;5065168;28;20585;-68
2022/04/14 00:22:45;;;;;;;;;;;14.10;84.70;;;;;;5064640;28;20403;-68
2022/04/14 00:25:11;;;;;;;;;;;14.10;84.80;;;;;;5058414;28;19912;-68
2022/04/14 00:27:37;;;;;;;;;;;14.00;84.80;;;;;;5064862;28;19916;-68
2022/04/14 00:30:03;;;;;;;;;;;14.00;84.80;;;;;;5064815;28;19919;-68
2022/04/14 00:32:31;;;;;;;;;;;14.00;84.80;;;;;;5066997;28;19912;-68
2022/04/14 00:34:57;;;;;;;;;;;14.00;84.90;;;;;;5050315;28;20331;-68
2022/04/14 00:37:22;;;;;;;;;;;14.00;85.00;;;;;;5068763;28;19962;-68
2022/04/14 00:39:49;;;;;;;;;;;13.90;84.90;;;;;;5069877;28;20028;-68
2022/04/14 00:42:14;;;;;;;;;;;13.90;85.10;;;;;;5046873;28;19958;-68
2022/04/14 00:44:40;;;;;;;;;;;13.90;85.20;;;;;;5064622;28;19916;-68
2022/04/14 00:47:06;;;;;;;;;;;13.90;85.20;;;;;;5068020;28;19908;-68
2022/04/14 00:49:32;;;;;;;;;;;13.90;85.20;;;;;;5067889;28;19962;-68
2022/04/14 00:52:00;;;;;;;;;;;13.80;85.30;;;;;;5066837;28;19909;-68
2022/04/14 00:54:26;;;;;;;;;;;13.80;85.20;;;;;;5068004;28;19936;-68
2022/04/14 00:56:52;;;;;;;;;;;13.80;85.30;;;;;;5067745;28;20470;-68
2022/04/14 00:59:17;;;;;;;;;;;13.80;85.40;;;;;;5049912;28;19912;-68
2022/04/14 01:01:43;;;;;;;;;;;13.80;85.30;;;;;;5053979;28;19961;-68
2022/04/14 01:04:10;;;;;;;;;;;13.80;85.30;;;;;;5076106;28;19919;-68
2022/04/14 01:06:38;;;;;;;;;;;13.80;85.20;;;;;;5068035;28;19933;-68
2022/04/14 01:09:16;;;;;;;;;;;13.80;85.30;;;;;;5049325;28;19963;-68
2022/04/14 01:11:52;;;;;;;;;;;13.70;85.20;;;;;;5049878;28;19973;-68
2022/04/14 01:14:28;;;;;;;;;;;13.80;85.40;;;;;;5067684;28;19915;-68
2022/04/14 01:16:55;;;;;;;;;;;13.70;85.40;;;;;;5067832;28;19912;-68
2022/04/14 01:19:20;;;;;;;;;;;13.70;85.40;;;;;;5067510;28;20333;-68
2022/04/14 01:21:52;;;;;;;;;;;13.70;85.40;;;;;;5067287;28;19915;-68
2022/04/14 01:24:18;;;;;;;;;;;13.70;85.60;;;;;;5067813;28;20553;-68
2022/04/14 01:26:44;;;;;;;;;;;13.70;85.40;;;;;;5049291;28;19912;-68
2022/04/14 01:29:22;;;;;;;;;;;13.70;85.40;;;;;;5067540;28;19966;-68
2022/04/14 01:31:48;;;;;;;;;;;13.60;85.50;;;;;;5069860;28;20421;-68
2022/04/14 01:34:14;;;;;;;;;;;13.60;85.40;;;;;;5074839;28;19912;-68
2022/04/14 01:36:39;;;;;;;;;;;13.60;85.60;;;;;;5067413;28;19908;-68
2022/04/14 01:39:05;;;;;;;;;;;13.60;85.60;;;;;;5067160;28;19939;-68
2022/04/14 01:41:30;;;;;;;;;;;13.60;85.60;;;;;;5068486;28;19913;-68
2022/04/14 01:43:56;;;;;;;;;;;13.60;85.70;;;;;;5063407;28;20367;-68
2022/04/14 01:46:21;;;;;;;;;;;13.50;85.80;;;;;;5067029;28;19916;-68
2022/04/14 01:48:47;;;;;;;;;;;13.50;85.80;;;;;;5065196;28;19916;-68
2022/04/14 01:51:12;;;;;;;;;;;13.50;85.70;;;;;;5066948;28;20693;-68
2022/04/14 01:53:38;;;;;;;;;;;13.50;85.80;;;;;;5067402;28;19959;-68
2022/04/14 01:56:04;;;;;;;;;;;13.50;85.70;;;;;;5066674;28;19913;-68
2022/04/14 01:58:29;;;;;;;;;;;13.50;85.70;;;;;;5067132;28;20031;-68
2022/04/14 02:00:54;;;;;;;;;;;13.50;85.70;;;;;;5066381;28;20375;-68
2022/04/14 02:03:20;;;;;;;;;;;13.50;85.80;;;;;;5078459;28;19912;-68
2022/04/14 02:05:45;;;;;;;;;;;13.50;85.90;;;;;;5066433;28;20416;-68
2022/04/14 02:08:11;;;;;;;;;;;13.40;85.90;;;;;;5066931;28;19913;-68
2022/04/14 02:10:36;;;;;;;;;;;13.40;85.80;;;;;;5048967;28;19908;-68
2022/04/14 02:13:02;;;;;;;;;;;13.40;85.80;;;;;;5066427;28;20004;-68
2022/04/14 02:15:27;;;;;;;;;;;13.40;85.70;;;;;;5066877;28;20619;-68
2022/04/14 02:17:53;;;;;;;;;;;13.40;85.90;;;;;;5061117;28;20647;-68
2022/04/14 02:20:18;;;;;;;;;;;13.40;86.00;;;;;;5066630;28;19917;-68
2022/04/14 02:22:44;;;;;;;;;;;13.40;85.80;;;;;;5066264;28;19908;-68
2022/04/14 02:25:10;;;;;;;;;;;13.30;86.00;;;;;;5066158;28;20309;-68
2022/04/14 02:27:35;;;;;;;;;;;13.30;85.80;;;;;;5066303;28;20011;-68
2022/04/14 02:30:01;;;;;;;;;;;13.30;86.00;;;;;;5066588;28;19931;-68
2022/04/14 02:32:26;;;;;;;;;;;13.30;86.00;;;;;;5074380;28;20299;-68
2022/04/14 02:34:52;;;;;;;;;;;13.30;85.90;;;;;;5068173;28;19912;-68
2022/04/14 02:37:17;;;;;;;;;;;13.30;85.90;;;;;;5066177;28;20361;-68
2022/04/14 02:39:42;;;;;;;;;;;13.30;86.00;;;;;;5067965;28;19920;-68
2022/04/14 02:42:08;;;;;;;;;;;13.20;86.00;;;;;;5065436;28;19916;-68
2022/04/14 02:44:33;;;;;;;;;;;13.20;86.00;;;;;;5066207;28;19970;-68
2022/04/14 02:46:59;;;;;;;;;;;13.20;86.10;;;;;;5065158;28;20352;-68
2022/04/14 02:49:24;;;;;;;;;;;13.20;86.10;;;;;;5065923;28;20019;-68
2022/04/14 02:51:50;;;;;;;;;;;13.20;85.90;;;;;;5065472;28;19912;-68
2022/04/14 02:54:15;;;;;;;;;;;13.20;85.90;;;;;;5065733;28;19912;-69
2022/04/14 02:56:41;;;;;;;;;;;13.20;85.90;;;;;;5065848;28;19913;-68
2022/04/14 02:59:06;;;;;;;;;;;13.20;85.90;;;;;;5065512;28;19912;-68
2022/04/14 03:01:32;;;;;;;;;;;13.20;86.00;;;;;;5067529;28;19915;-68
2022/04/14 03:03:57;;;;;;;;;;;13.10;86.10;;;;;;5075209;28;19954;-68
2022/04/14 03:06:23;;;;;;;;;;;13.10;86.00;;;;;;5047692;28;19912;-68
2022/04/14 03:08:48;;;;;;;;;;;13.10;86.00;;;;;;5065604;28;19917;-68
2022/04/14 03:11:14;;;;;;;;;;;13.10;86.00;;;;;;5065053;28;19940;-68
2022/04/14 03:13:40;;;;;;;;;;;13.10;86.00;;;;;;5065632;28;19909;-68
2022/04/14 03:16:06;;;;;;;;;;;13.10;85.90;;;;;;5047128;28;20385;-68
2022/04/14 03:18:31;;;;;;;;;;;13.10;86.20;;;;;;5065713;28;19917;-68
2022/04/14 03:20:57;;;;;;;;;;;13.10;86.20;;;;;;5065210;28;19912;-68
2022/04/14 03:23:23;;;;;;;;;;;13.10;86.20;;;;;;5064127;28;19916;-68
2022/04/14 03:25:49;;;;;;;;;;;13.10;86.20;;;;;;5065190;28;20531;-68
2022/04/14 03:28:14;;;;;;;;;;;13.00;86.20;;;;;;5064771;28;19923;-68
2022/04/14 03:30:40;;;;;;;;;;;13.00;86.20;;;;;;5046955;28;19912;-68
2022/04/14 03:33:05;;;;;;;;;;;13.00;86.10;;;;;;5062968;28;19912;-68
2022/04/14 03:35:31;;;;;;;;;;;13.00;86.20;;;;;;5065105;28;20573;-68
2022/04/14 03:37:56;;;;;;;;;;;13.00;86.20;;;;;;5046948;28;19913;-68
2022/04/14 03:40:21;;;;;;;;;;;13.00;86.50;;;;;;5046654;28;19909;-68
2022/04/14 03:42:47;;;;;;;;;;;13.00;86.40;;;;;;5065177;28;19962;-68
2022/04/14 03:45:13;;;;;;;;;;;13.00;86.60;;;;;;5065237;28;19916;-68
2022/04/14 03:47:38;;;;;;;;;;;13.00;86.60;;;;;;5064786;28;19916;-68
2022/04/14 03:50:04;;;;;;;;;;;12.90;86.60;;;;;;5047358;28;20007;-68
2022/04/14 03:52:29;;;;;;;;;;;12.90;86.60;;;;;;5064400;28;19916;-68
2022/04/14 03:54:56;;;;;;;;;;;12.90;86.60;;;;;;5065185;28;19917;-68
2022/04/14 03:57:21;;;;;;;;;;;12.90;86.50;;;;;;5064625;28;19913;-68
2022/04/14 03:59:47;;;;;;;;;;;12.90;86.60;;;;;;5064384;28;20019;-68
2022/04/14 04:02:14;;;;;;;;;;;12.90;86.70;;;;;;5070522;28;20215;-68
2022/04/14 04:04:40;;;;;;;;;;;12.90;86.80;;;;;;5067921;28;19913;-68
2022/04/14 04:07:05;;;;;;;;;;;12.90;86.80;;;;;;5067358;28;19918;-68
2022/04/14 04:09:33;;;;;;;;;;;12.80;86.80;;;;;;5068649;28;19917;-68
2022/04/14 04:11:59;;;;;;;;;;;12.80;86.90;;;;;;5065931;28;19913;-68
2022/04/14 04:14:24;;;;;;;;;;;12.80;86.90;;;;;;5068668;28;19916;-68
2022/04/14 04:16:50;;;;;;;;;;;12.80;86.90;;;;;;5049818;28;20582;-68
2022/04/14 04:19:15;;;;;;;;;;;12.80;87.00;;;;;;5068492;28;19923;-68
2022/04/14 04:21:41;;;;;;;;;;;12.80;87.00;;;;;;5068758;28;19912;-68
2022/04/14 04:24:06;;;;;;;;;;;12.80;87.10;;;;;;5050380;28;20473;-68
2022/04/14 04:26:32;;;;;;;;;;;12.70;87.00;;;;;;5068354;28;20001;-68
2022/04/14 04:28:57;;;;;;;;;;;12.70;87.10;;;;;;5068520;28;20167;-68
2022/04/14 04:31:23;;;;;;;;;;;12.70;87.00;;;;;;5068639;28;19912;-68
2022/04/14 04:33:51;;;;;;;;;;;12.70;87.20;;;;;;5077863;28;19993;-67
2022/04/14 04:36:20;;;;;;;;;;;12.70;87.20;;;;;;5068213;28;19924;-68
2022/04/14 04:38:45;;;;;;;;;;;12.70;87.30;;;;;;5068146;28;20009;-68
2022/04/14 04:41:10;;;;;;;;;;;12.70;87.30;;;;;;5050519;28;19950;-68
2022/04/14 04:43:36;;;;;;;;;;;12.70;87.30;;;;;;5052345;28;19908;-68
2022/04/14 04:46:01;;;;;;;;;;;12.70;87.40;;;;;;5068217;28;19915;-68
2022/04/14 04:48:27;;;;;;;;;;;12.60;87.30;;;;;;5067580;28;19928;-69
2022/04/14 04:50:52;;;;;;;;;;;12.60;87.10;;;;;;5068054;28;19912;-68
2022/04/14 04:53:18;;;;;;;;;;;12.60;87.10;;;;;;5049693;28;20582;-68
2022/04/14 04:55:44;;;;;;;;;;;12.60;87.10;;;;;;5050144;28;20503;-68
2022/04/14 04:58:09;;;;;;;;;;;12.60;87.20;;;;;;5067747;28;20376;-68
2022/04/14 05:00:35;;;;;;;;;;;12.60;87.80;;;;;;5065940;28;19921;-68
2022/04/14 05:03:00;;;;;;;;;;;12.60;87.40;;;;;;5078208;28;19916;-68
2022/04/14 05:05:26;;;;;;;;;;;12.60;87.30;;;;;;5049770;28;19934;-68
2022/04/14 05:07:51;;;;;;;;;;;12.60;87.30;;;;;;5067850;28;19919;-68
2022/04/14 05:10:17;;;;;;;;;;;12.60;87.30;;;;;;5067259;28;20025;-68
2022/04/14 05:12:42;;;;;;;;;;;12.60;87.30;;;;;;5064920;28;19974;-68
2022/04/14 05:15:08;;;;;;;;;;;12.60;87.20;;;;;;5067399;28;19913;-68
2022/04/14 05:17:34;;;;;;;;;;;12.60;86.90;;;;;;5066238;28;20372;-68
2022/04/14 05:19:59;;;;;;;;;;;12.60;86.90;;;;;;5049608;28;20301;-68
2022/04/14 05:22:25;;;;;;;;;;;12.60;87.00;;;;;;5066891;28;20001;-68
2022/04/14 05:24:50;;;;;;;;;;;12.60;86.80;;;;;;5066196;28;19999;-68
2022/04/14 05:27:15;;;;;;;;;;;12.60;86.90;;;;;;5066280;28;20761;-68
2022/04/14 05:29:41;;;;;;;;;;;12.50;86.80;;;;;;5067011;28;19912;-68
2022/04/14 05:32:07;;;;;;;;;;;12.60;86.80;;;;;;5068751;28;20722;-68
2022/04/14 05:34:33;;;;;;;;;;;12.50;86.70;;;;;;5066980;28;20000;-68
2022/04/14 05:36:58;;;;;;;;;;;12.50;86.80;;;;;;5049105;28;20019;-68
2022/04/14 05:39:24;;;;;;;;;;;12.60;86.90;;;;;;5065401;28;19995;-68
2022/04/14 05:41:49;;;;;;;;;;;12.60;86.90;;;;;;5065546;28;20372;-68
2022/04/14 05:44:16;;;;;;;;;;;12.60;86.70;;;;;;5047778;28;19913;-68
2022/04/14 05:46:42;;;;;;;;;;;12.50;86.70;;;;;;5067042;28;19920;-68
2022/04/14 05:49:07;;;;;;;;;;;12.50;86.70;;;;;;5066675;28;19920;-68
2022/04/14 05:51:33;;;;;;;;;;;12.50;86.70;;;;;;5063776;28;19919;-68
2022/04/14 05:53:59;;;;;;;;;;;12.50;86.70;;;;;;5066744;28;19912;-68
2022/04/14 05:56:24;;;;;;;;;;;12.50;86.60;;;;;;5066340;28;19915;-68
2022/04/14 05:58:49;;;;;;;;;;;12.50;86.50;;;;;;5066210;28;20612;-68
2022/04/14 06:01:15;;;;;;;;;;;12.50;86.60;;;;;;5065695;28;20456;-68
2022/04/14 06:03:41;;;;;;;;;;;12.50;86.40;;;;;;5075305;28;19913;-68
2022/04/14 06:06:06;;;;;;;;;;;12.50;86.40;;;;;;5048178;28;19918;-68
2022/04/14 06:08:32;;;;;;;;;;;12.50;86.40;;;;;;5047966;28;19948;-68
2022/04/14 06:10:58;;;;;;;;;;;12.50;86.50;;;;;;5048001;28;19987;-68
2022/04/14 06:13:23;;;;;;;;;;;12.50;86.40;;;;;;5065983;28;19951;-68
2022/04/14 06:15:49;;;;;;;;;;;12.60;86.40;;;;;;5066086;28;20325;-68
2022/04/14 06:18:15;;;;;;;;;;;12.50;86.30;;;;;;5065999;28;19928;-68
2022/04/14 06:20:40;;;;;;;;;;;12.60;86.20;;;;;;5066124;28;19913;-68
2022/04/14 06:23:06;;;;;;;;;;;12.50;86.30;;;;;;5065979;28;20415;-68
2022/04/14 06:25:31;;;;;;;;;;;12.60;86.20;;;;;;5066048;28;19908;-68
2022/04/14 06:27:57;;;;;;;;;;;12.60;86.20;;;;;;5065910;28;19916;-68
2022/04/14 06:30:22;;;;;;;;;;;12.60;86.20;;;;;;5065499;28;19951;-68
2022/04/14 06:32:58;;;;;;;;;;;12.60;86.10;;;;;;5072660;28;19909;-68
2022/04/14 06:35:23;;;;;;;;;;;12.60;86.10;;;;;;5065519;28;19920;-68
2022/04/14 06:37:49;;;;;;;;;;;12.60;85.90;;;;;;5065717;28;19913;-68
2022/04/14 06:40:14;;;;;;;;;;;12.60;85.80;;;;;;5067342;28;20373;-68
2022/04/14 06:42:40;;;;;;;;;;;12.60;85.60;;;;;;5065176;28;19917;-68
2022/04/14 06:45:06;;;;;;;;;;;12.60;85.50;;;;;;5065954;28;20595;-68
2022/04/14 06:47:32;;;;;;;;;;;12.60;85.60;;;;;;5065406;28;20692;-68
2022/04/14 06:49:57;;;;;;;;;;;12.60;85.20;;;;;;5065876;28;19916;-68
2022/04/14 06:52:23;;;;;;;;;;;12.70;85.30;;;;;;5047559;28;19909;-68
2022/04/14 06:54:49;;;;;;;;;;;12.70;84.80;;;;;;5065813;28;19912;-68
2022/04/14 06:57:15;;;;;;;;;;;12.70;85.10;;;;;;5065545;28;19916;-68
2022/04/14 06:59:41;;;;;;;;;;;12.70;84.90;;;;;;5065363;28;20349;-68
2022/04/14 07:02:07;;;;;;;;;;;12.70;85.20;;;;;;5056690;28;19912;-68
2022/04/14 07:04:33;;;;;;;;;;;12.70;85.00;;;;;;5065092;28;19957;-68
2022/04/14 07:06:59;;;;;;;;;;;12.80;85.40;;;;;;5064300;28;20539;-68
2022/04/14 07:09:24;;;;;;;;;;;12.80;85.10;;;;;;5064519;28;19916;-68
2022/04/14 07:11:50;;;;;;;;;;;12.80;85.20;;;;;;5063625;28;19912;-68
2022/04/14 07:14:16;;;;;;;;;;;12.80;85.00;;;;;;5064217;28;19919;-68
2022/04/14 07:16:42;;;;;;;;;;;12.90;85.20;;;;;;5064427;28;19966;-68
2022/04/14 07:19:07;;;;;;;;;;;12.90;85.20;;;;;;5064998;28;19912;-68
2022/04/14 07:21:33;;;;;;;;;;;12.90;85.00;;;;;;5064178;28;20204;-68
2022/04/14 07:23:58;;;;;;;;;;;12.90;84.90;;;;;;5064988;28;20349;-68
2022/04/14 07:26:24;;;;;;;;;;;12.90;85.00;;;;;;5064418;28;20366;-68
2022/04/14 07:28:49;;;;;;;;;;;12.90;85.00;;;;;;5065014;28;19916;-68
2022/04/14 07:31:15;;;;;;;;;;;13.00;84.90;;;;;;5046746;28;19963;-68
2022/04/14 07:33:41;;;;;;;;;;;13.00;84.90;;;;;;5070407;28;20289;-69
2022/04/14 07:36:07;;;;;;;;;;;13.00;85.00;;;;;;5046917;28;19916;-68
2022/04/14 07:38:32;;;;;;;;;;;13.00;85.00;;;;;;5064770;28;19908;-68
2022/04/14 07:40:58;;;;;;;;;;;13.00;85.00;;;;;;5067006;28;19912;-68
2022/04/14 07:43:23;;;;;;;;;;;13.00;85.20;;;;;;5047434;28;19939;-68
2022/04/14 07:45:49;;;;;;;;;;;13.00;85.40;;;;;;5067436;28;19944;-68
2022/04/14 07:48:16;;;;;;;;;;;13.00;85.60;;;;;;5068598;28;20407;-68
2022/04/14 07:50:42;;;;;;;;;;;12.90;85.80;;;;;;5068825;28;20023;-68
2022/04/14 07:53:08;;;;;;;;;;;13.00;85.70;;;;;;5067617;28;20325;-68
2022/04/14 07:55:34;;;;;;;;;;;13.00;85.60;;;;;;5068393;28;19943;-69
2022/04/14 07:58:02;;;;;;;;;;;13.00;86.10;;;;;;5067927;28;19919;-68
2022/04/14 08:00:28;;;;;;;;;;;13.00;85.90;;;;;;5064621;28;19985;-68
2022/04/14 08:02:55;;;;;;;;;;;12.90;85.60;;;;;;5073260;28;20054;-68
2022/04/14 08:05:46;;;;;;;;;;;13.00;85.90;;;;;;5082311;28;20385;-68
2022/04/14 08:08:12;;;;;;;;;;;13.00;85.80;;;;;;5046595;28;19913;-69
2022/04/14 08:10:38;;;;;;;;;;;13.10;85.60;;;;;;5064523;28;19975;-68
2022/04/14 08:13:04;;;;;;;;;;;13.10;85.60;;;;;;5067827;28;19909;-68
2022/04/14 08:15:30;;;;;;;;;;;13.10;85.60;;;;;;5068296;28;20269;-68
2022/04/14 08:17:56;;;;;;;;;;;13.20;85.40;;;;;;5049313;28;19923;-69
2022/04/14 08:20:21;;;;;;;;;;;13.30;85.30;;;;;;5066983;28;19999;-69
2022/04/14 08:22:51;;;;;;;;;;;13.40;84.90;;;;;;5053962;28;19913;-68
2022/04/14 08:25:21;;;;;;;;;;;13.40;85.40;;;;;;5067019;28;19913;-68
2022/04/14 08:27:47;;;;;;;;;;;13.50;84.30;;;;;;5066749;28;20380;-68
2022/04/14 08:30:13;;;;;;;;;;;13.60;84.40;;;;;;5067103;28;19915;-68
2022/04/14 08:32:39;;;;;;;;;;;13.70;84.20;;;;;;5070566;28;19912;-69
2022/04/14 08:35:04;;;;;;;;;;;13.70;84.10;;;;;;5052923;28;20113;-68
2022/04/14 08:37:30;;;;;;;;;;;13.70;84.20;;;;;;5068002;28;19908;-68
2022/04/14 08:39:56;;;;;;;;;;;13.80;84.00;;;;;;5069361;28;19918;-68
2022/04/14 08:42:24;;;;;;;;;;;13.80;83.90;;;;;;5067179;28;19909;-68
2022/04/14 08:44:55;;;;;;;;;;;13.90;83.60;;;;;;5067609;28;19915;-68
2022/04/14 08:47:21;;;;;;;;;;;14.00;83.40;;;;;;5066798;28;19920;-68
2022/04/14 08:49:48;;;;;;;;;;;14.10;83.60;;;;;;5067414;28;19917;-68
2022/04/14 08:52:15;;;;;;;;;;;14.20;82.90;;;;;;5067195;28;20003;-68
2022/04/14 08:54:44;;;;;;;;;;;14.20;82.50;;;;;;5067728;28;20373;-68
2022/04/14 08:57:13;;;;;;;;;;;14.30;82.60;;;;;;5067095;28;20001;-68
2022/04/14 08:59:45;;;;;;;;;;;14.40;82.50;;;;;;5048063;28;19913;-68
2022/04/14 09:02:15;;;;;;;;;;;14.40;82.80;;;;;;5070571;28;20612;-68
2022/04/14 09:04:44;;;;;;;;;;;14.50;82.70;;;;;;5053665;28;19913;-68
2022/04/14 09:07:10;;;;;;;;;;;14.50;82.40;;;;;;5067240;28;19999;-68
2022/04/14 09:09:35;;;;;;;;;;;14.60;82.40;;;;;;5066504;28;20076;-68
2022/04/14 09:12:01;;;;;;;;;;;14.60;82.30;;;;;;5067001;28;19919;-68
2022/04/14 09:14:27;;;;;;;;;;;14.70;82.20;;;;;;5067299;28;19909;-68
2022/04/14 09:16:53;;;;;;;;;;;14.70;82.60;;;;;;5066837;28;19908;-68
2022/04/14 09:19:20;;;;;;;;;;;14.80;82.50;;;;;;5066299;28;19961;-68
2022/04/14 09:21:59;;;;;;;;;;;14.80;82.10;;;;;;5067053;28;20474;-68
2022/04/14 09:24:44;;;;;;;;;;;14.80;82.40;;;;;;5049375;28;19969;-68
2022/04/14 09:27:21;;;;;;;;;;;14.90;82.30;;;;;;5066558;28;19963;-68
2022/04/14 09:29:47;;;;;;;;;;;14.90;81.80;;;;;;5050843;28;19956;-68
2022/04/14 09:32:25;;;;;;;;;;;15.00;81.70;;;;;;5062931;28;19909;-69
2022/04/14 09:34:51;;;;;;;;;;;15.10;81.80;;;;;;5067164;28;19912;-68
2022/04/14 09:37:17;;;;;;;;;;;15.10;81.50;;;;;;5066737;28;20002;-68
2022/04/14 09:39:55;;;;;;;;;;;15.20;81.90;;;;;;5068787;28;19970;-68
2022/04/14 09:42:21;;;;;;;;;;;15.20;81.60;;;;;;5066162;28;20058;-68
2022/04/14 09:44:48;;;;;;;;;;;15.20;81.80;;;;;;5064182;28;20633;-68
2022/04/14 09:47:23;;;;;;;;;;;15.20;81.70;;;;;;5066713;28;19913;-68
2022/04/14 09:49:48;;;;;;;;;;;15.20;82.10;;;;;;5066624;28;20018;-68
2022/04/14 09:52:14;;;;;;;;;;;15.40;81.40;;;;;;5065875;28;19917;-68
2022/04/14 09:54:40;;;;;;;;;;;15.40;81.30;;;;;;5066686;28;20405;-68
2022/04/14 09:57:09;;;;;;;;;;;15.50;81.10;;;;;;5066022;28;20504;-68
2022/04/14 09:59:37;;;;;;;;;;;15.50;81.20;;;;;;5065910;28;20667;-68
2022/04/14 10:02:09;;;;;;;;;;;15.50;81.10;;;;;;5050826;28;19908;-68
2022/04/14 10:04:39;;;;;;;;;;;15.50;81.30;;;;;;5065883;28;19924;-68
2022/04/14 10:07:12;;;;;;;;;;;15.50;81.80;;;;;;5063479;28;19912;-68
2022/04/14 10:09:39;;;;;;;;;;;15.60;81.20;;;;;;5066356;28;19947;-68
2022/04/14 10:12:24;;;;;;;;;;;15.70;80.90;;;;;;5065362;28;19912;-68
2022/04/14 10:14:58;;;;;;;;;;;15.80;80.80;;;;;;5065497;28;19912;-68
2022/04/14 10:17:24;;;;;;;;;;;15.90;80.40;;;;;;5064566;28;19920;-68
2022/04/14 10:19:50;;;;;;;;;;;16.00;80.30;;;;;;5064837;28;19912;-68
2022/04/14 10:22:16;;;;;;;;;;;16.10;80.10;;;;;;5063570;28;19912;-68
2022/04/14 10:24:42;;;;;;;;;;;16.20;79.90;;;;;;5064670;28;19908;-68
2022/04/14 10:27:09;;;;;;;;;;;16.20;79.80;;;;;;5047122;28;19951;-68
2022/04/14 10:29:36;;;;;;;;;;;16.20;79.80;;;;;;5065649;28;19939;-68
2022/04/14 10:32:01;;;;;;;;;;;16.30;79.80;;;;;;5061955;28;19938;-68
2022/04/14 10:34:28;;;;;;;;;;;16.40;79.80;;;;;;5047646;28;19912;-68
2022/04/14 10:36:54;;;;;;;;;;;16.50;79.40;;;;;;5065556;28;19916;-68
2022/04/14 10:39:20;;;;;;;;;;;16.60;79.40;;;;;;5065963;28;19909;-68
2022/04/14 10:41:49;;;;;;;;;;;16.80;79.20;;;;;;5048893;28;19966;-68
2022/04/14 10:44:19;;;;;;;;;;;16.80;79.10;;;;;;5065523;28;20060;-68
2022/04/14 10:46:48;;;;;;;;;;;16.90;79.00;;;;;;5065519;28;19973;-68
2022/04/14 10:49:14;;;;;;;;;;;16.80;79.40;;;;;;5065436;28;19920;-68
2022/04/14 10:51:40;;;;;;;;;;;16.80;80.10;;;;;;5065370;28;19938;-68
2022/04/14 10:54:06;;;;;;;;;;;16.90;80.00;;;;;;5062726;28;19916;-68
2022/04/14 10:56:32;;;;;;;;;;;17.00;79.80;;;;;;5065641;28;19915;-68
2022/04/14 10:58:57;;;;;;;;;;;17.10;79.30;;;;;;5062564;28;20631;-68
2022/04/14 11:01:41;;;;;;;;;;;17.30;78.90;;;;;;5065643;28;19936;-68
2022/04/14 11:04:23;;;;;;;;;;;17.20;79.20;;;;;;5056698;28;19915;-69
2022/04/14 11:06:51;;;;;;;;;;;17.20;79.60;;;;;;5065684;28;19989;-68
2022/04/14 11:09:35;;;;;;;;;;;17.30;79.20;;;;;;5056877;28;19957;-68
2022/04/14 11:12:01;;;;;;;;;;;17.40;79.10;;;;;;5065213;28;19927;-68
2022/04/14 11:14:27;;;;;;;;;;;17.30;79.10;;;;;;5064754;28;19999;-68
2022/04/14 11:16:52;;;;;;;;;;;17.40;79.10;;;;;;5065246;28;20109;-68
2022/04/14 11:19:21;;;;;;;;;;;17.50;78.90;;;;;;5046924;28;19912;-68
2022/04/14 11:22:02;;;;;;;;;;;17.50;78.80;;;;;;5046880;28;19966;-68
2022/04/14 11:24:40;;;;;;;;;;;17.70;78.40;;;;;;5056782;28;19908;-69
2022/04/14 11:27:09;;;;;;;;;;;17.80;78.10;;;;;;5048663;28;19921;-69
2022/04/14 11:29:35;;;;;;;;;;;17.80;78.40;;;;;;5062064;28;20242;-68
2022/04/14 11:32:00;;;;;;;;;;;17.80;78.40;;;;;;5046031;28;19917;-68
2022/04/14 11:34:32;;;;;;;;;;;17.80;78.50;;;;;;5064951;28;19920;-68
2022/04/14 11:36:59;;;;;;;;;;;17.80;78.20;;;;;;5064790;28;19920;-68
2022/04/14 11:39:25;;;;;;;;;;;17.70;78.70;;;;;;5065060;28;19919;-68
2022/04/14 11:41:54;;;;;;;;;;;17.70;78.70;;;;;;5048267;28;19913;-68
2022/04/14 11:44:21;;;;;;;;;;;17.80;78.90;;;;;;5046939;28;20011;-68
2022/04/14 11:46:46;;;;;;;;;;;17.90;78.00;;;;;;5046541;28;19920;-68
2022/04/14 11:49:21;;;;;;;;;;;17.90;78.00;;;;;;5064868;28;19920;-68
2022/04/14 11:51:50;;;;;;;;;;;17.90;77.80;;;;;;5064719;28;19913;-68
2022/04/14 11:54:20;;;;;;;;;;;17.90;78.10;;;;;;5064714;28;20076;-68
2022/04/14 11:56:49;;;;;;;;;;;17.90;78.00;;;;;;5045217;28;19919;-68
2022/04/14 11:59:17;;;;;;;;;;;17.80;78.30;;;;;;5063268;28;19920;-68
2022/04/14 12:01:50;;;;;;;;;;;17.80;78.60;;;;;;5065048;28;19916;-68
2022/04/14 12:04:16;;;;;;;;;;;17.80;78.50;;;;;;5068428;28;19999;-68
2022/04/14 12:06:54;;;;;;;;;;;17.80;78.20;;;;;;5065203;28;20281;-68
2022/04/14 12:09:20;;;;;;;;;;;17.80;78.30;;;;;;5063996;28;19935;-68
2022/04/14 12:11:46;;;;;;;;;;;17.80;78.50;;;;;;5063518;28;19999;-68
2022/04/14 12:14:13;;;;;;;;;;;17.70;78.50;;;;;;5063800;28;20548;-69
2022/04/14 12:16:48;;;;;;;;;;;17.80;78.70;;;;;;5064160;28;19919;-68
2022/04/14 12:19:14;;;;;;;;;;;17.80;78.30;;;;;;5060801;28;20380;-68
2022/04/14 12:21:39;;;;;;;;;;;17.80;77.90;;;;;;5063421;28;19913;-68
2022/04/14 12:24:05;;;;;;;;;;;17.80;78.10;;;;;;5064396;28;20038;-68
2022/04/14 12:26:34;;;;;;;;;;;17.80;78.10;;;;;;5064107;28;19912;-68
2022/04/14 12:28:59;;;;;;;;;;;17.80;78.00;;;;;;5067943;28;20415;-68
2022/04/14 12:31:28;;;;;;;;;;;17.80;78.00;;;;;;5068058;28;20093;-68
2022/04/14 12:33:57;;;;;;;;;;;17.90;77.60;;;;;;5076091;28;20054;-68
2022/04/14 12:36:43;;;;;;;;;;;18.00;77.30;;;;;;5064300;28;20318;-69
2022/04/14 12:39:27;;;;;;;;;;;18.10;77.20;;;;;;5048895;28;19916;-68
2022/04/14 12:41:53;;;;;;;;;;;18.10;77.10;;;;;;5081134;28;19966;-68
2022/04/14 12:44:20;;;;;;;;;;;18.10;77.10;;;;;;5065088;28;19945;-68
2022/04/14 12:46:47;;;;;;;;;;;18.10;77.00;;;;;;5049348;28;19935;-68
2022/04/14 12:49:14;;;;;;;;;;;18.10;76.80;;;;;;5066859;28;19917;-68
2022/04/14 12:51:40;;;;;;;;;;;18.20;76.50;;;;;;5067083;28;19912;-68
2022/04/14 12:54:06;;;;;;;;;;;18.30;76.70;;;;;;5061750;28;19916;-68
2022/04/14 12:56:35;;;;;;;;;;;18.40;76.00;;;;;;5051480;28;19920;-68
2022/04/14 12:59:18;;;;;;;;;;;18.50;76.00;;;;;;5066684;28;19919;-68
2022/04/14 13:01:45;;;;;;;;;;;18.60;76.10;;;;;;5061093;28;19916;-68
2022/04/14 13:04:10;;;;;;;;;;;18.70;75.50;;;;;;5066098;28;19908;-69
2022/04/14 13:06:36;;;;;;;;;;;18.70;75.40;;;;;;5065823;28;20172;-68
2022/04/14 13:09:17;;;;;;;;;;;18.70;75.40;;;;;;5066045;28;19996;-68
2022/04/14 13:11:43;;;;;;;;;;;18.70;75.40;;;;;;5064131;28;19908;-68
2022/04/14 13:14:15;;;;;;;;;;;18.80;75.20;;;;;;5064708;28;20540;-68
2022/04/14 13:16:40;;;;;;;;;;;18.80;75.10;;;;;;5066570;28;19994;-68
2022/04/14 13:19:06;;;;;;;;;;;18.90;74.70;;;;;;5067453;28;20575;-68
2022/04/14 13:21:32;;;;;;;;;;;19.00;74.40;;;;;;5066881;28;19930;-68
2022/04/14 13:23:58;;;;;;;;;;;19.00;74.50;;;;;;5067125;28;19938;-68
2022/04/14 13:26:23;;;;;;;;;;;19.10;74.30;;;;;;5067214;28;19959;-68
2022/04/14 13:28:48;;;;;;;;;;;19.10;74.40;;;;;;5045560;28;20377;-68
2022/04/14 13:31:14;;;;;;;;;;;19.10;74.80;;;;;;5066583;28;19966;-68
2022/04/14 13:33:39;;;;;;;;;;;19.00;75.60;;;;;;5049300;28;19912;-68
2022/04/14 13:36:05;;;;;;;;;;;18.90;75.20;;;;;;5067207;28;19924;-68
2022/04/14 13:38:30;;;;;;;;;;;18.90;75.40;;;;;;5048084;28;20431;-68
2022/04/14 13:40:56;;;;;;;;;;;18.90;75.30;;;;;;5050350;28;19977;-68
2022/04/14 13:43:21;;;;;;;;;;;18.80;75.50;;;;;;5067086;28;19916;-68
2022/04/14 13:45:47;;;;;;;;;;;18.80;75.80;;;;;;5066734;28;19916;-68
2022/04/14 13:48:12;;;;;;;;;;;18.70;76.10;;;;;;5065778;28;20277;-68
2022/04/14 13:50:40;;;;;;;;;;;18.70;76.30;;;;;;5062705;28;19919;-68
2022/04/14 13:53:06;;;;;;;;;;;18.60;76.70;;;;;;5047409;28;20340;-68
2022/04/14 13:55:34;;;;;;;;;;;18.60;76.90;;;;;;5047451;28;19959;-68
2022/04/14 13:57:59;;;;;;;;;;;18.60;76.80;;;;;;5046752;28;19924;-68
2022/04/14 14:00:25;;;;;;;;;;;18.60;76.90;;;;;;5066809;28;19909;-68
2022/04/14 14:02:51;;;;;;;;;;;18.50;76.60;;;;;;5077237;28;19912;-68
2022/04/14 14:05:17;;;;;;;;;;;18.50;76.70;;;;;;5048271;28;20426;-68
2022/04/14 14:07:42;;;;;;;;;;;18.50;76.70;;;;;;5066279;28;19979;-68
2022/04/14 14:10:08;;;;;;;;;;;18.60;76.60;;;;;;5065757;28;19974;-68
2022/04/14 14:12:39;;;;;;;;;;;18.60;76.20;;;;;;5065590;28;19912;-68
2022/04/14 14:15:05;;;;;;;;;;;18.70;75.70;;;;;;5066226;28;20004;-68